createdAt,value
2022-11-27T00:01:28.618Z,102503.53
2022-11-27T00:03:57.071Z,102503.53
2022-11-27T00:06:26.264Z,102495.69
2022-11-27T00:08:54.209Z,102503.31
2022-11-27T00:11:24.181Z,102500.38
2022-11-27T00:13:52.939Z,102500.78
2022-11-27T00:16:21.686Z,102495.31
2022-11-27T00:18:50.178Z,102490.34
2022-11-27T00:21:22.277Z,102488.06
2022-11-27T00:23:49.817Z,102492.75
2022-11-27T00:26:17.283Z,102496.38
2022-11-27T00:28:44.875Z,102499.34
2022-11-27T00:31:16.595Z,102493.31
2022-11-27T00:33:44.424Z,102486.53
2022-11-27T00:36:12.943Z,102493.44
2022-11-27T00:38:41.102Z,102490.81
2022-11-27T00:41:09.427Z,102489.13
2022-11-27T00:43:44.216Z,102497.59
2022-11-27T00:46:13.060Z,102496.06
2022-11-27T00:48:42.373Z,102489.72
2022-11-27T00:51:12.299Z,102480.47
2022-11-27T00:53:39.932Z,102479.34
2022-11-27T00:56:08.393Z,102478.38
2022-11-27T00:58:35.916Z,102475.53
2022-11-27T01:01:08.489Z,102482.13
2022-11-27T01:03:36.352Z,102476.63
2022-11-27T01:06:06.689Z,102481.16
2022-11-27T01:08:34.871Z,102478.41
2022-11-27T01:11:03.131Z,102474.94
2022-11-27T01:13:32.971Z,102474.44
2022-11-27T01:16:01.517Z,102477.72
2022-11-27T01:18:29.273Z,102476.19
2022-11-27T01:20:57.486Z,102464.19
2022-11-27T01:23:26.620Z,102466.31
2022-11-27T01:25:54.175Z,102463.34
2022-11-27T01:28:22.229Z,102462.63
2022-11-27T01:30:50.164Z,102462.06
2022-11-27T01:33:17.889Z,102467.34
2022-11-27T01:35:54.430Z,102459.63
2022-11-27T01:38:21.975Z,102454.69
2022-11-27T01:40:50.840Z,102451.56
2022-11-27T01:43:18.454Z,102444.22
2022-11-27T01:45:46.244Z,102437.47
2022-11-27T01:48:15.025Z,102436.91
2022-11-27T01:50:42.667Z,102428.50
2022-11-27T01:53:14.808Z,102433.13
2022-11-27T01:55:46.785Z,102429.31
2022-11-27T01:58:20.061Z,102422.53
2022-11-27T02:00:47.448Z,102419.25
2022-11-27T02:03:16.165Z,102415.72
2022-11-27T02:05:43.817Z,102411.56
2022-11-27T02:08:15.230Z,102411.56
2022-11-27T02:10:49.387Z,102414.84
2022-11-27T02:13:27.822Z,102400.03
2022-11-27T02:16:04.206Z,102413.66
2022-11-27T02:18:37.638Z,102406.84
2022-11-27T02:21:11.864Z,102408.81
2022-11-27T02:24:12.904Z,102410.69
2022-11-27T02:27:03.094Z,102402.09
2022-11-27T02:29:34.243Z,102405.41
2022-11-27T02:32:09.955Z,102401.09
2022-11-27T02:34:44.305Z,102410.75
2022-11-27T02:37:18.012Z,102408.31
2022-11-27T02:39:56.400Z,102408.47
2022-11-27T02:42:24.822Z,102409.78
2022-11-27T02:44:58.320Z,102409.19
2022-11-27T02:47:27.620Z,102402.75
2022-11-27T02:49:57.074Z,102407.13
2022-11-27T02:52:26.991Z,102415.78
2022-11-27T02:54:58.294Z,102410.78
2022-11-27T02:57:28.505Z,102409.75
2022-11-27T02:59:58.967Z,102408.34
2022-11-27T03:02:31.518Z,102408.91
2022-11-27T03:05:02.169Z,102403.75
2022-11-27T03:07:34.356Z,102400.59
2022-11-27T03:10:07.850Z,102400.25
2022-11-27T03:12:35.427Z,102406.25
2022-11-27T03:15:04.811Z,102401.44
2022-11-27T03:17:42.524Z,102402.53
2022-11-27T03:20:16.249Z,102400.78
2022-11-27T03:22:44.435Z,102404.69
2022-11-27T03:25:12.175Z,102405.03
2022-11-27T03:27:44.280Z,102396.25
2022-11-27T03:30:14.707Z,102401.22
2022-11-27T03:32:42.236Z,102390.53
2022-11-27T03:35:12.036Z,102401.50
2022-11-27T03:37:39.454Z,102400.22
2022-11-27T03:40:08.769Z,102407.44
2022-11-27T03:42:45.372Z,102412.41
2022-11-27T03:45:23.488Z,102409.47
2022-11-27T03:48:07.318Z,102412.06
2022-11-27T03:50:47.271Z,102408.50
2022-11-27T03:53:23.188Z,102398.28
2022-11-27T03:55:56.587Z,102398.63
2022-11-27T03:58:31.176Z,102406.66
2022-11-27T04:01:01.383Z,102404.09
2022-11-27T04:03:31.062Z,102398.84
2022-11-27T04:05:58.818Z,102397.78
2022-11-27T04:08:26.569Z,102391.69
2022-11-27T04:10:54.068Z,102394.03
2022-11-27T04:13:21.500Z,102399.50
2022-11-27T04:15:48.971Z,102399.63
2022-11-27T04:18:17.721Z,102397.38
2022-11-27T04:20:45.141Z,102394.59
2022-11-27T04:23:12.591Z,102399.63
2022-11-27T04:25:40.011Z,102402.00
2022-11-27T04:28:07.441Z,102395.13
2022-11-27T04:30:35.036Z,102406.03
2022-11-27T04:33:02.509Z,102404.59
2022-11-27T04:35:31.249Z,102404.91
2022-11-27T04:37:58.702Z,102402.78
2022-11-27T04:40:26.409Z,102402.13
2022-11-27T04:42:54.728Z,102405.72
2022-11-27T04:45:22.142Z,102402.47
2022-11-27T04:47:49.563Z,102405.28
2022-11-27T04:50:17.045Z,102405.94
2022-11-27T04:52:45.759Z,102402.13
2022-11-27T04:55:13.251Z,102412.34
2022-11-27T04:57:40.636Z,102408.56
2022-11-27T05:00:10.611Z,102411.19
2022-11-27T05:02:38.116Z,102407.28
2022-11-27T05:05:06.199Z,102407.31
2022-11-27T05:07:33.713Z,102408.66
2022-11-27T05:10:03.134Z,102404.56
2022-11-27T05:12:30.549Z,102404.03
2022-11-27T05:15:00.701Z,102405.31
2022-11-27T05:17:31.540Z,102402.00
2022-11-27T05:19:58.938Z,102404.59
2022-11-27T05:22:26.354Z,102409.44
2022-11-27T05:24:53.744Z,102413.09
2022-11-27T05:27:22.522Z,102414.97
2022-11-27T05:29:50.031Z,102414.63
2022-11-27T05:32:17.494Z,102410.97
2022-11-27T05:34:44.907Z,102413.06
2022-11-27T05:37:17.982Z,102411.66
2022-11-27T05:39:46.804Z,102409.13
2022-11-27T05:42:16.068Z,102408.59
2022-11-27T05:44:44.779Z,102408.16
2022-11-27T05:47:12.172Z,102408.94
2022-11-27T05:49:39.558Z,102417.38
2022-11-27T05:52:06.957Z,102408.03
2022-11-27T05:54:34.375Z,102400.47
2022-11-27T05:57:01.739Z,102406.16
2022-11-27T05:59:29.124Z,102400.88
2022-11-27T06:01:57.930Z,102403.06
2022-11-27T06:04:25.408Z,102396.97
2022-11-27T06:06:52.803Z,102398.88
2022-11-27T06:09:20.222Z,102395.28
2022-11-27T06:11:47.628Z,102390.47
2022-11-27T06:14:15.071Z,102385.63
2022-11-27T06:16:42.570Z,102378.69
2022-11-27T06:19:11.367Z,102372.56
2022-11-27T06:21:39.083Z,102369.34
2022-11-27T06:24:07.117Z,102374.84
2022-11-27T06:26:34.965Z,102369.47
2022-11-27T06:29:02.660Z,102369.97
2022-11-27T06:31:31.703Z,102368.88
2022-11-27T06:33:59.855Z,102378.63
2022-11-27T06:36:31.410Z,102380.56
2022-11-27T06:38:59.346Z,102378.28
2022-11-27T06:41:28.131Z,102374.88
2022-11-27T06:43:56.328Z,102385.25
2022-11-27T06:46:24.321Z,102379.59
2022-11-27T06:48:54.162Z,102373.28
2022-11-27T06:51:23.290Z,102374.03
2022-11-27T06:53:53.710Z,102382.91
2022-11-27T06:56:23.287Z,102375.66
2022-11-27T06:58:52.483Z,102398.44
2022-11-27T07:01:20.500Z,102389.16
2022-11-27T07:03:48.023Z,102390.00
2022-11-27T07:06:19.024Z,102390.16
2022-11-27T07:08:46.809Z,102376.50
2022-11-27T07:11:18.258Z,102377.00
2022-11-27T07:13:46.151Z,102365.09
2022-11-27T07:16:14.660Z,102359.63
2022-11-27T07:18:45.088Z,102359.63
2022-11-27T07:21:13.274Z,102351.50
2022-11-27T07:23:41.060Z,102349.19
2022-11-27T07:26:10.096Z,102355.81
2022-11-27T07:28:39.162Z,102354.75
2022-11-27T07:31:07.124Z,102351.00
2022-11-27T07:33:34.594Z,102353.34
2022-11-27T07:36:03.364Z,102356.53
2022-11-27T07:38:30.801Z,102346.59
2022-11-27T07:41:00.232Z,102341.34
2022-11-27T07:43:28.036Z,102339.34
2022-11-27T07:45:57.403Z,102356.59
2022-11-27T07:48:25.001Z,102342.72
2022-11-27T07:50:52.402Z,102344.41
2022-11-27T07:53:19.803Z,102342.06
2022-11-27T07:55:47.200Z,102338.44
2022-11-27T07:58:14.633Z,102343.66
2022-11-27T08:00:42.452Z,102340.34
2022-11-27T08:03:11.914Z,102349.69
2022-11-27T08:05:39.361Z,102344.38
2022-11-27T08:08:06.951Z,102348.72
2022-11-27T08:10:36.811Z,102340.16
2022-11-27T08:13:04.989Z,102344.72
2022-11-27T08:15:32.858Z,102334.47
2022-11-27T08:18:00.245Z,102339.28
2022-11-27T08:20:28.975Z,102328.78
2022-11-27T08:23:02.331Z,102332.50
2022-11-27T08:25:30.326Z,102337.06
2022-11-27T08:27:57.810Z,102338.66
2022-11-27T08:30:25.682Z,102333.81
2022-11-27T08:32:53.135Z,102330.66
2022-11-27T08:35:20.842Z,102314.75
2022-11-27T08:37:50.030Z,102308.81
2022-11-27T08:40:17.695Z,102306.66
2022-11-27T08:42:45.114Z,102296.59
2022-11-27T08:45:12.522Z,102302.34
2022-11-27T08:47:39.931Z,102308.44
2022-11-27T08:50:08.956Z,102325.25
2022-11-27T08:52:36.678Z,102321.94
2022-11-27T08:55:06.129Z,102323.63
2022-11-27T08:57:33.631Z,102319.50
2022-11-27T09:00:01.033Z,102319.34
2022-11-27T09:02:29.463Z,102325.06
2022-11-27T09:04:56.858Z,102318.34
2022-11-27T09:07:24.379Z,102319.63
2022-11-27T09:09:51.854Z,102312.34
2022-11-27T09:12:20.586Z,102319.00
2022-11-27T09:14:47.989Z,102321.84
2022-11-27T09:17:15.419Z,102318.19
2022-11-27T09:19:42.827Z,102320.13
2022-11-27T09:22:10.268Z,102313.56
2022-11-27T09:24:37.833Z,102315.47
2022-11-27T09:27:05.375Z,102314.53
2022-11-27T09:29:36.315Z,102311.53
2022-11-27T09:32:03.830Z,102311.28
2022-11-27T09:34:36.012Z,102302.22
2022-11-27T09:37:04.999Z,102301.59
2022-11-27T09:39:33.755Z,102304.94
2022-11-27T09:42:03.909Z,102297.88
2022-11-27T09:44:40.667Z,102300.84
2022-11-27T09:47:17.490Z,102300.94
2022-11-27T09:49:48.619Z,102284.03
2022-11-27T09:52:23.246Z,102284.09
2022-11-27T09:54:57.029Z,102278.47
2022-11-27T09:57:30.107Z,102277.09
2022-11-27T10:00:02.786Z,102276.81
2022-11-27T10:02:32.720Z,102282.16
2022-11-27T10:05:17.407Z,102275.78
2022-11-27T10:08:13.349Z,102278.31
2022-11-27T10:10:46.612Z,102273.50
2022-11-27T10:13:38.976Z,102278.31
2022-11-27T10:16:16.324Z,102283.78
2022-11-27T10:18:47.869Z,102272.13
2022-11-27T10:21:20.955Z,102274.91
2022-11-27T10:23:57.041Z,102273.72
2022-11-27T10:26:30.359Z,102273.69
2022-11-27T10:29:03.402Z,102263.97
2022-11-27T10:31:38.282Z,102260.31
2022-11-27T10:34:17.534Z,102254.31
2022-11-27T10:36:48.802Z,102259.69
2022-11-27T10:39:19.991Z,102263.50
2022-11-27T10:41:54.148Z,102261.34
2022-11-27T10:44:29.284Z,102257.69
2022-11-27T10:47:02.559Z,102252.50
2022-11-27T10:49:30.553Z,102257.59
2022-11-27T10:51:58.171Z,102249.69
2022-11-27T10:54:30.112Z,102250.50
2022-11-27T10:57:17.084Z,102240.16
2022-11-27T10:59:49.235Z,102246.31
2022-11-27T11:02:33.009Z,102241.75
2022-11-27T11:05:32.866Z,102236.16
2022-11-27T11:08:04.342Z,102228.09
2022-11-27T11:10:35.508Z,102227.75
2022-11-27T11:13:27.181Z,102226.66
2022-11-27T11:15:58.289Z,102233.56
2022-11-27T11:18:29.048Z,102239.19
2022-11-27T11:20:58.599Z,102236.97
2022-11-27T11:23:30.781Z,102236.69
2022-11-27T11:26:03.591Z,102223.94
2022-11-27T11:28:37.966Z,102220.53
2022-11-27T11:31:10.514Z,102225.13
2022-11-27T11:33:48.476Z,102221.31
2022-11-27T11:36:16.299Z,102218.84
2022-11-27T11:38:46.804Z,102217.09
2022-11-27T11:41:17.888Z,102214.28
2022-11-27T11:43:56.420Z,102222.19
2022-11-27T11:46:26.549Z,102219.34
2022-11-27T11:48:57.471Z,102215.41
2022-11-27T11:51:33.192Z,102219.53
2022-11-27T11:54:12.816Z,102212.72
2022-11-27T11:56:44.760Z,102216.03
2022-11-27T11:59:21.465Z,102210.50
2022-11-27T12:02:02.232Z,102206.03
2022-11-27T12:05:03.446Z,102203.84
2022-11-27T12:07:48.919Z,102194.09
2022-11-27T12:10:23.806Z,102192.50
2022-11-27T12:13:01.881Z,102195.09
2022-11-27T12:15:35.297Z,102184.47
2022-11-27T12:18:10.687Z,102185.25
2022-11-27T12:20:51.392Z,102177.31
2022-11-27T12:23:50.368Z,102170.22
2022-11-27T12:26:29.259Z,102156.16
2022-11-27T12:29:17.257Z,102151.50
2022-11-27T12:32:10.073Z,102152.97
2022-11-27T12:34:51.436Z,102152.16
2022-11-27T12:37:36.209Z,102139.00
2022-11-27T12:40:25.402Z,102140.88
2022-11-27T12:43:00.028Z,102133.38
2022-11-27T12:45:34.940Z,102131.94
2022-11-27T12:48:06.535Z,102131.97
2022-11-27T12:50:41.408Z,102129.34
2022-11-27T12:53:23.126Z,102115.13
2022-11-27T12:56:01.804Z,102120.09
2022-11-27T12:58:33.659Z,102127.56
2022-11-27T13:01:06.858Z,102120.13
2022-11-27T13:03:41.846Z,102117.09
2022-11-27T13:06:13.014Z,102118.94
2022-11-27T13:08:52.555Z,102112.44
2022-11-27T13:11:24.988Z,102105.66
2022-11-27T13:13:58.231Z,102114.25
2022-11-27T13:16:31.307Z,102107.91
2022-11-27T13:19:05.392Z,102102.84
2022-11-27T13:21:36.003Z,102097.06
2022-11-27T13:24:05.756Z,102092.75
2022-11-27T13:26:36.989Z,102086.78
2022-11-27T13:29:09.062Z,102078.31
2022-11-27T13:31:39.429Z,102081.59
2022-11-27T13:34:10.031Z,102082.72
2022-11-27T13:36:40.358Z,102076.88
2022-11-27T13:39:23.687Z,102073.19
2022-11-27T13:42:02.694Z,102071.09
2022-11-27T13:44:31.036Z,102060.25
2022-11-27T13:47:05.661Z,102055.22
2022-11-27T13:49:36.158Z,102049.66
2022-11-27T13:52:13.300Z,102047.97
2022-11-27T13:54:53.416Z,102048.84
2022-11-27T13:57:23.054Z,102049.09
2022-11-27T14:00:02.437Z,102043.97
2022-11-27T14:02:42.353Z,102052.81
2022-11-27T14:05:10.331Z,102053.28
2022-11-27T14:07:41.275Z,102052.25
2022-11-27T14:10:15.895Z,102042.81
2022-11-27T14:12:53.131Z,102046.91
2022-11-27T14:15:24.658Z,102037.47
2022-11-27T14:17:55.198Z,102039.19
2022-11-27T14:20:28.266Z,102038.53
2022-11-27T14:23:11.634Z,102041.84
2022-11-27T14:25:41.911Z,102046.06
2022-11-27T14:28:16.114Z,102042.56
2022-11-27T14:30:48.873Z,102041.78
2022-11-27T14:33:21.545Z,102041.13
2022-11-27T14:35:50.219Z,102030.41
2022-11-27T14:38:17.718Z,102039.22
2022-11-27T14:40:47.153Z,102043.00
2022-11-27T14:43:17.486Z,102035.72
2022-11-27T14:45:47.750Z,102030.50
2022-11-27T14:48:23.734Z,102031.66
2022-11-27T14:50:52.134Z,102036.16
2022-11-27T14:53:21.138Z,102035.72
2022-11-27T14:55:51.586Z,102037.69
2022-11-27T14:58:23.054Z,102039.63
2022-11-27T15:00:57.281Z,102023.75
2022-11-27T15:03:26.222Z,102022.69
2022-11-27T15:05:57.872Z,102021.63
2022-11-27T15:08:25.962Z,102018.91
2022-11-27T15:10:57.396Z,102016.94
2022-11-27T15:13:27.594Z,102016.25
2022-11-27T15:16:07.965Z,102010.88
2022-11-27T15:18:38.130Z,102012.53
2022-11-27T15:21:11.434Z,102016.03
2022-11-27T15:23:39.328Z,102011.00
2022-11-27T15:26:15.862Z,102003.59
2022-11-27T15:28:52.425Z,101997.50
2022-11-27T15:31:29.462Z,101993.16
2022-11-27T15:34:03.121Z,101994.06
2022-11-27T15:36:39.225Z,101990.16
2022-11-27T15:39:18.475Z,101988.50
2022-11-27T15:41:56.553Z,101989.19
2022-11-27T15:44:25.229Z,101990.97
2022-11-27T15:46:54.448Z,101990.53
2022-11-27T15:49:23.420Z,101994.13
2022-11-27T15:51:51.341Z,101985.00
2022-11-27T15:54:20.010Z,101982.63
2022-11-27T15:56:47.861Z,101985.47
2022-11-27T15:59:17.791Z,101980.13
2022-11-27T16:01:45.279Z,101981.97
2022-11-27T16:04:12.723Z,101975.19
2022-11-27T16:06:40.176Z,101975.84
2022-11-27T16:09:07.945Z,101968.75
2022-11-27T16:11:35.736Z,101959.47
2022-11-27T16:14:03.226Z,101959.75
2022-11-27T16:16:32.210Z,101956.38
2022-11-27T16:19:01.046Z,101956.38
2022-11-27T16:21:30.338Z,101959.84
2022-11-27T16:23:59.651Z,101958.47
2022-11-27T16:26:28.748Z,101958.38
2022-11-27T16:28:56.367Z,101953.31
2022-11-27T16:31:25.061Z,101944.53
2022-11-27T16:33:53.832Z,101937.34
2022-11-27T16:36:22.365Z,101937.88
2022-11-27T16:38:53.181Z,101933.75
2022-11-27T16:41:21.357Z,101938.28
2022-11-27T16:43:50.850Z,101933.88
2022-11-27T16:46:21.191Z,101936.22
2022-11-27T16:48:50.501Z,101936.22
2022-11-27T16:51:22.540Z,101939.25
2022-11-27T16:53:53.067Z,101937.56
2022-11-27T16:56:22.630Z,101922.44
2022-11-27T16:58:50.646Z,101898.47
2022-11-27T17:01:20.689Z,101888.16
2022-11-27T17:03:48.216Z,101895.22
2022-11-27T17:06:17.460Z,101889.81
2022-11-27T17:08:46.677Z,101888.00
2022-11-27T17:11:20.249Z,101896.09
2022-11-27T17:13:48.647Z,101906.50
2022-11-27T17:16:16.796Z,101908.16
2022-11-27T17:18:45.521Z,101897.66
2022-11-27T17:21:18.151Z,101894.34
2022-11-27T17:23:47.482Z,101901.44
2022-11-27T17:26:17.014Z,101900.44
2022-11-27T17:28:44.594Z,101895.88
2022-11-27T17:31:13.264Z,101886.31
2022-11-27T17:33:40.800Z,101894.94
2022-11-27T17:36:08.704Z,101886.03
2022-11-27T17:38:36.260Z,101880.91
2022-11-27T17:41:07.577Z,101873.19
2022-11-27T17:43:35.665Z,101868.59
2022-11-27T17:46:03.412Z,101867.66
2022-11-27T17:48:30.846Z,101862.47
2022-11-27T17:50:58.258Z,101859.03
2022-11-27T17:53:25.682Z,101856.47
2022-11-27T17:55:55.383Z,101850.75
2022-11-27T17:58:24.331Z,101851.59
2022-11-27T18:00:51.898Z,101851.50
2022-11-27T18:03:19.442Z,101843.78
2022-11-27T18:05:46.836Z,101852.69
2022-11-27T18:08:14.235Z,101838.56
2022-11-27T18:10:41.949Z,101835.84
2022-11-27T18:13:09.381Z,101833.53
2022-11-27T18:15:38.572Z,101828.09
2022-11-27T18:18:07.671Z,101834.16
2022-11-27T18:20:35.114Z,101821.00
2022-11-27T18:23:02.796Z,101821.69
2022-11-27T18:25:30.267Z,101827.28
2022-11-27T18:27:57.987Z,101811.09
2022-11-27T18:30:25.946Z,101816.50
2022-11-27T18:32:54.641Z,101809.34
2022-11-27T18:35:24.649Z,101818.38
2022-11-27T18:37:52.039Z,101815.72
2022-11-27T18:40:19.658Z,101809.47
2022-11-27T18:42:47.048Z,101816.19
2022-11-27T18:45:31.839Z,101818.50
2022-11-27T18:48:01.898Z,101813.59
2022-11-27T18:50:30.008Z,101815.63
2022-11-27T18:52:57.579Z,101819.56
2022-11-27T18:55:25.339Z,101817.47
2022-11-27T18:57:52.828Z,101817.72
2022-11-27T19:00:21.090Z,101830.50
2022-11-27T19:02:48.529Z,101826.72
2022-11-27T19:05:17.458Z,101828.94
2022-11-27T19:07:44.926Z,101820.88
2022-11-27T19:10:12.645Z,101811.06
2022-11-27T19:12:40.108Z,101811.59
2022-11-27T19:15:08.812Z,101812.00
2022-11-27T19:17:36.523Z,101819.41
2022-11-27T19:20:06.769Z,101820.09
2022-11-27T19:22:42.368Z,101809.31
2022-11-27T19:25:10.585Z,101807.31
2022-11-27T19:27:38.033Z,101803.97
2022-11-27T19:30:06.604Z,101798.34
2022-11-27T19:32:35.209Z,101799.00
2022-11-27T19:35:07.144Z,101795.50
2022-11-27T19:37:36.896Z,101797.44
2022-11-27T19:40:07.327Z,101785.75
2022-11-27T19:42:34.712Z,101789.81
2022-11-27T19:45:02.133Z,101783.53
2022-11-27T19:47:36.334Z,101777.91
2022-11-27T19:50:04.074Z,101787.63
2022-11-27T19:52:32.323Z,101781.84
2022-11-27T19:54:59.749Z,101789.84
2022-11-27T19:57:28.501Z,101788.44
2022-11-27T19:59:56.073Z,101783.31
2022-11-27T20:02:23.668Z,101782.38
2022-11-27T20:04:52.727Z,101781.28
2022-11-27T20:07:20.192Z,101777.94
2022-11-27T20:09:47.832Z,101769.78
2022-11-27T20:12:15.588Z,101763.16
2022-11-27T20:14:44.477Z,101774.66
2022-11-27T20:17:12.082Z,101772.44
2022-11-27T20:19:39.801Z,101760.78
2022-11-27T20:22:07.806Z,101767.09
2022-11-27T20:24:44.093Z,101765.78
2022-11-27T20:27:23.010Z,101775.28
2022-11-27T20:29:51.829Z,101779.25
2022-11-27T20:32:19.205Z,101775.28
2022-11-27T20:34:46.653Z,101784.38
2022-11-27T20:37:14.137Z,101770.06
2022-11-27T20:39:41.633Z,101773.81
2022-11-27T20:42:09.118Z,101785.97
2022-11-27T20:44:36.568Z,101775.41
2022-11-27T20:47:05.320Z,101771.72
2022-11-27T20:49:33.841Z,101779.00
2022-11-27T20:52:03.342Z,101770.66
2022-11-27T20:54:31.182Z,101766.63
2022-11-27T20:56:58.957Z,101771.25
2022-11-27T20:59:26.335Z,101761.72
2022-11-27T21:01:53.824Z,101752.94
2022-11-27T21:04:24.925Z,101747.09
2022-11-27T21:06:52.700Z,101743.25
2022-11-27T21:09:21.540Z,101741.13
2022-11-27T21:11:49.402Z,101724.50
2022-11-27T21:14:18.762Z,101719.50
2022-11-27T21:16:49.193Z,101717.50
2022-11-27T21:19:18.930Z,101721.09
2022-11-27T21:21:48.456Z,101720.34
2022-11-27T21:24:16.040Z,101719.38
2022-11-27T21:26:44.168Z,101716.78
2022-11-27T21:29:13.268Z,101717.41
2022-11-27T21:31:46.706Z,101710.88
2022-11-27T21:34:15.339Z,101701.63
2022-11-27T21:36:42.860Z,101698.06
2022-11-27T21:39:13.021Z,101697.06
2022-11-27T21:41:40.478Z,101692.47
2022-11-27T21:44:08.031Z,101694.91
2022-11-27T21:46:36.256Z,101680.78
2022-11-27T21:49:04.101Z,101685.28
2022-11-27T21:51:31.951Z,101689.91
2022-11-27T21:54:00.160Z,101686.72
2022-11-27T21:56:31.332Z,101683.44
2022-11-27T21:58:58.880Z,101681.69
2022-11-27T22:01:27.589Z,101683.53
2022-11-27T22:03:56.455Z,101695.38
2022-11-27T22:06:26.472Z,101699.97
2022-11-27T22:08:56.662Z,101701.25
2022-11-27T22:11:26.722Z,101695.25
2022-11-27T22:13:56.884Z,101699.25
2022-11-27T22:16:26.721Z,101695.38
2022-11-27T22:18:54.892Z,101707.09
2022-11-27T22:21:22.497Z,101695.66
2022-11-27T22:23:50.692Z,101690.34
2022-11-27T22:26:20.265Z,101694.34
2022-11-27T22:28:48.478Z,101687.19
2022-11-27T22:31:19.449Z,101683.13
2022-11-27T22:33:48.176Z,101686.00
2022-11-27T22:36:18.031Z,101684.75
2022-11-27T22:38:46.148Z,101673.69
2022-11-27T22:41:14.809Z,101683.81
2022-11-27T22:43:42.988Z,101681.69
2022-11-27T22:46:13.565Z,101681.16
2022-11-27T22:48:42.353Z,101660.97
2022-11-27T22:51:10.760Z,101658.06
2022-11-27T22:53:38.782Z,101670.06
2022-11-27T22:56:07.661Z,101663.22
2022-11-27T22:58:39.799Z,101667.34
2022-11-27T23:01:10.024Z,101668.31
2022-11-27T23:03:38.693Z,101662.22
2022-11-27T23:06:11.749Z,101667.72
2022-11-27T23:08:39.889Z,101657.53
2022-11-27T23:11:07.439Z,101656.34
2022-11-27T23:13:34.897Z,101649.13
2022-11-27T23:16:02.569Z,101647.91
2022-11-27T23:18:29.941Z,101641.63
2022-11-27T23:20:57.537Z,101642.34
2022-11-27T23:23:26.284Z,101648.28
2022-11-27T23:25:53.668Z,101644.41
2022-11-27T23:28:21.146Z,101638.13
2022-11-27T23:30:52.666Z,101641.97
2022-11-27T23:33:36.281Z,101636.97
2022-11-27T23:36:05.839Z,101633.34
2022-11-27T23:38:34.884Z,101631.97
2022-11-27T23:41:09.053Z,101641.84
2022-11-27T23:43:36.786Z,101635.91
2022-11-27T23:46:04.700Z,101649.09
2022-11-27T23:48:32.239Z,101638.56
2022-11-27T23:50:59.738Z,101632.25
2022-11-27T23:53:29.516Z,101623.00
2022-11-27T23:56:02.074Z,101627.19
2022-11-27T23:58:29.543Z,101626.03
